sensor_id;sensor_type;location;lat;lon;timestamp;P1;durP1;ratioP1;P2;durP2;ratioP2
23747;SDS011;12054;53.662;10.126;2023-04-30T00:02:13;9.10;;;3.13;;
23747;SDS011;12054;53.662;10.126;2023-04-30T00:04:38;8.57;;;2.85;;
23747;SDS011;12054;53.662;10.126;2023-04-30T00:07:04;9.63;;;3.25;;
23747;SDS011;12054;53.662;10.126;2023-04-30T00:09:29;5.50;;;2.65;;
23747;SDS011;12054;53.662;10.126;2023-04-30T00:11:55;7.95;;;3.00;;
23747;SDS011;12054;53.662;10.126;2023-04-30T00:14:20;8.85;;;3.42;;
23747;SDS011;12054;53.662;10.126;2023-04-30T00:16:46;5.63;;;2.85;;
23747;SDS011;12054;53.662;10.126;2023-04-30T00:19:11;8.98;;;2.80;;
23747;SDS011;12054;53.662;10.126;2023-04-30T00:21:37;12.05;;;3.70;;
23747;SDS011;12054;53.662;10.126;2023-04-30T00:24:02;7.50;;;3.17;;
23747;SDS011;12054;53.662;10.126;2023-04-30T00:26:28;7.75;;;3.10;;
23747;SDS011;12054;53.662;10.126;2023-04-30T00:28:54;6.47;;;2.63;;
23747;SDS011;12054;53.662;10.126;2023-04-30T00:31:19;7.50;;;2.83;;
23747;SDS011;12054;53.662;10.126;2023-04-30T00:33:45;9.30;;;2.90;;
23747;SDS011;12054;53.662;10.126;2023-04-30T00:36:10;6.78;;;2.97;;
23747;SDS011;12054;53.662;10.126;2023-04-30T00:38:36;7.13;;;3.08;;
23747;SDS011;12054;53.662;10.126;2023-04-30T00:41:02;5.35;;;2.90;;
23747;SDS011;12054;53.662;10.126;2023-04-30T00:43:28;6.00;;;3.10;;
23747;SDS011;12054;53.662;10.126;2023-04-30T00:45:53;6.72;;;2.90;;
23747;SDS011;12054;53.662;10.126;2023-04-30T00:48:19;9.50;;;3.22;;
23747;SDS011;12054;53.662;10.126;2023-04-30T00:50:45;8.10;;;2.97;;
23747;SDS011;12054;53.662;10.126;2023-04-30T00:53:11;7.43;;;2.72;;
23747;SDS011;12054;53.662;10.126;2023-04-30T00:55:36;9.75;;;2.90;;
23747;SDS011;12054;53.662;10.126;2023-04-30T00:58:04;10.13;;;3.65;;
23747;SDS011;12054;53.662;10.126;2023-04-30T01:00:30;9.60;;;3.13;;
23747;SDS011;12054;53.662;10.126;2023-04-30T01:02:56;8.77;;;2.72;;
23747;SDS011;12054;53.662;10.126;2023-04-30T01:05:22;7.85;;;2.75;;
23747;SDS011;12054;53.662;10.126;2023-04-30T01:07:47;9.73;;;3.22;;
23747;SDS011;12054;53.662;10.126;2023-04-30T01:10:13;9.90;;;3.20;;
23747;SDS011;12054;53.662;10.126;2023-04-30T01:12:58;7.80;;;3.45;;
23747;SDS011;12054;53.662;10.126;2023-04-30T01:15:33;5.03;;;3.10;;
23747;SDS011;12054;53.662;10.126;2023-04-30T01:18:12;6.45;;;2.90;;
23747;SDS011;12054;53.662;10.126;2023-04-30T01:20:52;5.72;;;2.80;;
23747;SDS011;12054;53.662;10.126;2023-04-30T01:26:07;7.90;;;3.20;;
23747;SDS011;12054;53.662;10.126;2023-04-30T01:28:41;6.32;;;3.22;;
23747;SDS011;12054;53.662;10.126;2023-04-30T01:31:12;9.38;;;3.90;;
23747;SDS011;12054;53.662;10.126;2023-04-30T01:33:42;7.10;;;3.13;;
23747;SDS011;12054;53.662;10.126;2023-04-30T01:41:09;8.15;;;3.42;;
23747;SDS011;12054;53.662;10.126;2023-04-30T01:46:28;8.25;;;3.63;;
23747;SDS011;12054;53.662;10.126;2023-04-30T01:49:08;5.90;;;3.22;;
23747;SDS011;12054;53.662;10.126;2023-04-30T01:51:42;6.32;;;3.38;;
23747;SDS011;12054;53.662;10.126;2023-04-30T01:54:30;9.15;;;3.72;;
23747;SDS011;12054;53.662;10.126;2023-04-30T01:57:28;6.95;;;3.05;;
23747;SDS011;12054;53.662;10.126;2023-04-30T01:59:59;8.13;;;3.30;;
23747;SDS011;12054;53.662;10.126;2023-04-30T02:02:25;7.20;;;3.63;;
23747;SDS011;12054;53.662;10.126;2023-04-30T02:04:51;6.95;;;3.55;;
23747;SDS011;12054;53.662;10.126;2023-04-30T02:07:20;7.05;;;3.60;;
23747;SDS011;12054;53.662;10.126;2023-04-30T02:10:04;9.70;;;3.30;;
23747;SDS011;12054;53.662;10.126;2023-04-30T02:12:30;9.68;;;3.80;;
23747;SDS011;12054;53.662;10.126;2023-04-30T02:14:55;10.15;;;4.07;;
23747;SDS011;12054;53.662;10.126;2023-04-30T02:17:21;7.63;;;3.28;;
23747;SDS011;12054;53.662;10.126;2023-04-30T02:19:47;8.65;;;3.63;;
23747;SDS011;12054;53.662;10.126;2023-04-30T02:22:12;12.43;;;3.58;;
23747;SDS011;12054;53.662;10.126;2023-04-30T02:24:38;5.50;;;3.20;;
23747;SDS011;12054;53.662;10.126;2023-04-30T02:27:03;7.75;;;3.95;;
23747;SDS011;12054;53.662;10.126;2023-04-30T02:29:29;5.80;;;3.15;;
23747;SDS011;12054;53.662;10.126;2023-04-30T02:31:57;7.05;;;3.70;;
23747;SDS011;12054;53.662;10.126;2023-04-30T02:34:23;7.93;;;3.45;;
23747;SDS011;12054;53.662;10.126;2023-04-30T02:36:49;9.63;;;3.55;;
23747;SDS011;12054;53.662;10.126;2023-04-30T02:39:14;11.55;;;3.70;;
23747;SDS011;12054;53.662;10.126;2023-04-30T02:41:40;9.88;;;4.00;;
23747;SDS011;12054;53.662;10.126;2023-04-30T02:44:05;9.25;;;3.42;;
23747;SDS011;12054;53.662;10.126;2023-04-30T02:46:31;7.65;;;3.67;;
23747;SDS011;12054;53.662;10.126;2023-04-30T02:48:56;6.95;;;3.30;;
23747;SDS011;12054;53.662;10.126;2023-04-30T02:51:22;7.43;;;3.53;;
23747;SDS011;12054;53.662;10.126;2023-04-30T02:53:47;7.40;;;3.65;;
23747;SDS011;12054;53.662;10.126;2023-04-30T02:56:13;7.80;;;3.70;;
23747;SDS011;12054;53.662;10.126;2023-04-30T02:58:39;5.40;;;3.30;;
23747;SDS011;12054;53.662;10.126;2023-04-30T03:01:05;7.47;;;3.85;;
23747;SDS011;12054;53.662;10.126;2023-04-30T03:03:30;7.50;;;3.65;;
23747;SDS011;12054;53.662;10.126;2023-04-30T03:05:56;7.03;;;3.70;;
23747;SDS011;12054;53.662;10.126;2023-04-30T03:08:23;8.75;;;4.35;;
23747;SDS011;12054;53.662;10.126;2023-04-30T03:10:49;7.88;;;3.58;;
23747;SDS011;12054;53.662;10.126;2023-04-30T03:13:14;11.85;;;3.70;;
23747;SDS011;12054;53.662;10.126;2023-04-30T03:15:40;4.88;;;3.20;;
23747;SDS011;12054;53.662;10.126;2023-04-30T03:18:05;10.52;;;3.55;;
23747;SDS011;12054;53.662;10.126;2023-04-30T03:20:31;7.22;;;3.55;;
23747;SDS011;12054;53.662;10.126;2023-04-30T03:22:56;6.28;;;3.20;;
23747;SDS011;12054;53.662;10.126;2023-04-30T03:25:22;6.55;;;3.50;;
23747;SDS011;12054;53.662;10.126;2023-04-30T03:27:47;8.25;;;3.55;;
23747;SDS011;12054;53.662;10.126;2023-04-30T03:30:13;9.57;;;3.83;;
23747;SDS011;12054;53.662;10.126;2023-04-30T03:32:38;8.20;;;3.90;;
23747;SDS011;12054;53.662;10.126;2023-04-30T03:35:04;9.93;;;3.88;;
23747;SDS011;12054;53.662;10.126;2023-04-30T03:37:30;8.10;;;3.75;;
23747;SDS011;12054;53.662;10.126;2023-04-30T03:39:55;11.20;;;4.70;;
23747;SDS011;12054;53.662;10.126;2023-04-30T03:42:21;9.43;;;3.53;;
23747;SDS011;12054;53.662;10.126;2023-04-30T03:44:46;5.97;;;3.65;;
23747;SDS011;12054;53.662;10.126;2023-04-30T03:47:12;8.27;;;3.90;;
23747;SDS011;12054;53.662;10.126;2023-04-30T03:49:38;11.07;;;4.75;;
23747;SDS011;12054;53.662;10.126;2023-04-30T03:52:03;8.02;;;3.60;;
23747;SDS011;12054;53.662;10.126;2023-04-30T03:54:30;7.78;;;4.70;;
23747;SDS011;12054;53.662;10.126;2023-04-30T03:56:57;8.85;;;4.38;;
23747;SDS011;12054;53.662;10.126;2023-04-30T03:59:23;7.38;;;4.00;;
23747;SDS011;12054;53.662;10.126;2023-04-30T04:01:49;6.20;;;4.15;;
23747;SDS011;12054;53.662;10.126;2023-04-30T04:04:15;9.80;;;4.63;;
23747;SDS011;12054;53.662;10.126;2023-04-30T04:06:41;9.70;;;4.38;;
23747;SDS011;12054;53.662;10.126;2023-04-30T04:09:06;6.03;;;3.60;;
23747;SDS011;12054;53.662;10.126;2023-04-30T04:11:32;7.45;;;3.58;;
23747;SDS011;12054;53.662;10.126;2023-04-30T04:13:58;7.65;;;3.50;;
23747;SDS011;12054;53.662;10.126;2023-04-30T04:16:24;9.70;;;3.83;;
23747;SDS011;12054;53.662;10.126;2023-04-30T04:18:50;6.22;;;3.40;;
23747;SDS011;12054;53.662;10.126;2023-04-30T04:21:16;11.93;;;4.15;;
23747;SDS011;12054;53.662;10.126;2023-04-30T04:23:42;7.15;;;3.78;;
23747;SDS011;12054;53.662;10.126;2023-04-30T04:26:07;8.02;;;3.63;;
23747;SDS011;12054;53.662;10.126;2023-04-30T04:28:34;6.20;;;3.70;;
23747;SDS011;12054;53.662;10.126;2023-04-30T04:31:00;5.75;;;3.60;;
23747;SDS011;12054;53.662;10.126;2023-04-30T04:33:27;7.40;;;3.78;;
23747;SDS011;12054;53.662;10.126;2023-04-30T04:35:52;4.28;;;2.95;;
23747;SDS011;12054;53.662;10.126;2023-04-30T04:38:18;6.57;;;3.55;;
23747;SDS011;12054;53.662;10.126;2023-04-30T04:40:51;7.95;;;3.83;;
23747;SDS011;12054;53.662;10.126;2023-04-30T04:43:17;7.60;;;3.70;;
23747;SDS011;12054;53.662;10.126;2023-04-30T04:45:44;7.22;;;3.75;;
23747;SDS011;12054;53.662;10.126;2023-04-30T04:48:09;6.97;;;3.40;;
23747;SDS011;12054;53.662;10.126;2023-04-30T04:50:35;8.10;;;4.20;;
23747;SDS011;12054;53.662;10.126;2023-04-30T04:53:00;9.05;;;4.03;;
23747;SDS011;12054;53.662;10.126;2023-04-30T04:55:26;9.45;;;4.32;;
23747;SDS011;12054;53.662;10.126;2023-04-30T04:57:51;9.30;;;4.32;;
23747;SDS011;12054;53.662;10.126;2023-04-30T05:00:17;6.25;;;3.83;;
23747;SDS011;12054;53.662;10.126;2023-04-30T05:02:43;7.82;;;3.72;;
23747;SDS011;12054;53.662;10.126;2023-04-30T05:05:08;9.57;;;4.30;;
23747;SDS011;12054;53.662;10.126;2023-04-30T05:07:34;10.45;;;4.97;;
23747;SDS011;12054;53.662;10.126;2023-04-30T05:10:00;7.68;;;4.07;;
23747;SDS011;12054;53.662;10.126;2023-04-30T05:12:26;10.23;;;4.30;;
23747;SDS011;12054;53.662;10.126;2023-04-30T05:14:51;6.13;;;4.00;;
23747;SDS011;12054;53.662;10.126;2023-04-30T05:17:17;11.05;;;4.07;;
23747;SDS011;12054;53.662;10.126;2023-04-30T05:19:42;8.40;;;4.68;;
23747;SDS011;12054;53.662;10.126;2023-04-30T05:22:08;8.38;;;4.18;;
23747;SDS011;12054;53.662;10.126;2023-04-30T05:24:33;11.10;;;4.38;;
23747;SDS011;12054;53.662;10.126;2023-04-30T05:26:59;8.18;;;3.90;;
23747;SDS011;12054;53.662;10.126;2023-04-30T05:29:26;12.55;;;4.97;;
23747;SDS011;12054;53.662;10.126;2023-04-30T05:31:52;11.48;;;4.40;;
23747;SDS011;12054;53.662;10.126;2023-04-30T05:34:18;12.93;;;4.55;;
23747;SDS011;12054;53.662;10.126;2023-04-30T05:36:44;10.43;;;4.28;;
23747;SDS011;12054;53.662;10.126;2023-04-30T05:39:09;11.18;;;4.10;;
23747;SDS011;12054;53.662;10.126;2023-04-30T05:41:35;10.27;;;4.15;;
23747;SDS011;12054;53.662;10.126;2023-04-30T05:44:00;8.05;;;4.18;;
23747;SDS011;12054;53.662;10.126;2023-04-30T05:46:28;9.18;;;4.70;;
23747;SDS011;12054;53.662;10.126;2023-04-30T05:48:54;8.13;;;4.10;;
23747;SDS011;12054;53.662;10.126;2023-04-30T05:51:19;14.10;;;4.30;;
23747;SDS011;12054;53.662;10.126;2023-04-30T05:53:45;9.77;;;4.50;;
23747;SDS011;12054;53.662;10.126;2023-04-30T05:56:10;7.93;;;4.10;;
23747;SDS011;12054;53.662;10.126;2023-04-30T05:58:37;7.88;;;4.07;;
23747;SDS011;12054;53.662;10.126;2023-04-30T06:01:03;11.55;;;4.40;;
23747;SDS011;12054;53.662;10.126;2023-04-30T06:03:29;8.27;;;3.75;;
23747;SDS011;12054;53.662;10.126;2023-04-30T06:05:55;12.15;;;4.07;;
23747;SDS011;12054;53.662;10.126;2023-04-30T06:08:20;8.52;;;3.70;;
23747;SDS011;12054;53.662;10.126;2023-04-30T06:10:46;8.05;;;3.67;;
23747;SDS011;12054;53.662;10.126;2023-04-30T06:13:12;8.18;;;3.63;;
23747;SDS011;12054;53.662;10.126;2023-04-30T06:15:38;9.05;;;3.47;;
23747;SDS011;12054;53.662;10.126;2023-04-30T06:18:04;6.63;;;3.38;;
23747;SDS011;12054;53.662;10.126;2023-04-30T06:20:30;11.65;;;3.83;;
23747;SDS011;12054;53.662;10.126;2023-04-30T06:22:55;9.88;;;3.28;;
23747;SDS011;12054;53.662;10.126;2023-04-30T06:25:21;10.52;;;3.60;;
23747;SDS011;12054;53.662;10.126;2023-04-30T06:27:46;8.55;;;3.47;;
23747;SDS011;12054;53.662;10.126;2023-04-30T06:30:12;8.60;;;3.45;;
23747;SDS011;12054;53.662;10.126;2023-04-30T06:32:37;9.32;;;2.92;;
23747;SDS011;12054;53.662;10.126;2023-04-30T06:35:03;10.32;;;3.40;;
23747;SDS011;12054;53.662;10.126;2023-04-30T06:37:29;6.95;;;3.13;;
23747;SDS011;12054;53.662;10.126;2023-04-30T06:39:59;11.40;;;3.38;;
23747;SDS011;12054;53.662;10.126;2023-04-30T06:42:25;7.45;;;3.10;;
23747;SDS011;12054;53.662;10.126;2023-04-30T06:44:59;5.50;;;2.75;;
23747;SDS011;12054;53.662;10.126;2023-04-30T06:47:30;7.68;;;2.63;;
23747;SDS011;12054;53.662;10.126;2023-04-30T06:49:58;5.63;;;2.53;;
23747;SDS011;12054;53.662;10.126;2023-04-30T06:52:27;5.45;;;2.55;;
23747;SDS011;12054;53.662;10.126;2023-04-30T06:54:52;5.97;;;2.65;;
23747;SDS011;12054;53.662;10.126;2023-04-30T06:57:18;5.03;;;2.33;;
23747;SDS011;12054;53.662;10.126;2023-04-30T06:59:43;6.60;;;2.03;;
23747;SDS011;12054;53.662;10.126;2023-04-30T07:02:09;5.15;;;2.13;;
23747;SDS011;12054;53.662;10.126;2023-04-30T07:04:35;5.80;;;2.38;;
23747;SDS011;12054;53.662;10.126;2023-04-30T07:07:00;5.70;;;2.30;;
23747;SDS011;12054;53.662;10.126;2023-04-30T07:09:26;8.70;;;2.20;;
23747;SDS011;12054;53.662;10.126;2023-04-30T07:11:53;5.47;;;2.35;;
23747;SDS011;12054;53.662;10.126;2023-04-30T07:14:18;6.35;;;1.98;;
23747;SDS011;12054;53.662;10.126;2023-04-30T07:16:45;8.77;;;2.95;;
23747;SDS011;12054;53.662;10.126;2023-04-30T07:19:10;4.43;;;2.05;;
23747;SDS011;12054;53.662;10.126;2023-04-30T07:21:36;6.18;;;2.20;;
23747;SDS011;12054;53.662;10.126;2023-04-30T07:24:01;9.02;;;2.30;;
23747;SDS011;12054;53.662;10.126;2023-04-30T07:26:27;4.18;;;1.88;;
23747;SDS011;12054;53.662;10.126;2023-04-30T07:28:52;4.45;;;1.80;;
23747;SDS011;12054;53.662;10.126;2023-04-30T07:31:19;5.53;;;2.25;;
23747;SDS011;12054;53.662;10.126;2023-04-30T07:33:45;5.60;;;2.13;;
23747;SDS011;12054;53.662;10.126;2023-04-30T07:36:10;7.13;;;1.92;;
23747;SDS011;12054;53.662;10.126;2023-04-30T07:38:36;5.70;;;2.28;;
23747;SDS011;12054;53.662;10.126;2023-04-30T07:41:05;6.47;;;2.17;;
23747;SDS011;12054;53.662;10.126;2023-04-30T07:43:33;5.13;;;2.08;;
23747;SDS011;12054;53.662;10.126;2023-04-30T07:45:58;5.00;;;2.20;;
23747;SDS011;12054;53.662;10.126;2023-04-30T07:48:24;6.00;;;2.22;;
23747;SDS011;12054;53.662;10.126;2023-04-30T07:50:49;3.67;;;1.83;;
23747;SDS011;12054;53.662;10.126;2023-04-30T07:53:15;7.70;;;2.40;;
23747;SDS011;12054;53.662;10.126;2023-04-30T07:55:54;4.82;;;2.20;;
23747;SDS011;12054;53.662;10.126;2023-04-30T07:58:19;6.25;;;2.15;;
23747;SDS011;12054;53.662;10.126;2023-04-30T08:00:45;4.75;;;2.22;;
23747;SDS011;12054;53.662;10.126;2023-04-30T08:03:10;5.38;;;2.17;;
23747;SDS011;12054;53.662;10.126;2023-04-30T08:05:36;7.97;;;2.03;;
23747;SDS011;12054;53.662;10.126;2023-04-30T08:08:02;4.65;;;2.00;;
23747;SDS011;12054;53.662;10.126;2023-04-30T08:10:27;10.30;;;2.35;;
23747;SDS011;12054;53.662;10.126;2023-04-30T08:12:53;5.20;;;2.00;;
23747;SDS011;12054;53.662;10.126;2023-04-30T08:15:18;3.88;;;1.80;;
23747;SDS011;12054;53.662;10.126;2023-04-30T08:17:50;5.80;;;2.05;;
23747;SDS011;12054;53.662;10.126;2023-04-30T08:20:16;4.53;;;2.13;;
23747;SDS011;12054;53.662;10.126;2023-04-30T08:22:42;8.88;;;2.50;;
23747;SDS011;12054;53.662;10.126;2023-04-30T08:25:11;7.05;;;2.47;;
23747;SDS011;12054;53.662;10.126;2023-04-30T08:27:37;5.13;;;2.40;;
23747;SDS011;12054;53.662;10.126;2023-04-30T08:30:03;8.25;;;2.25;;
23747;SDS011;12054;53.662;10.126;2023-04-30T08:32:33;6.80;;;2.22;;
23747;SDS011;12054;53.662;10.126;2023-04-30T08:35:05;7.32;;;2.40;;
23747;SDS011;12054;53.662;10.126;2023-04-30T08:37:31;4.70;;;2.10;;
23747;SDS011;12054;53.662;10.126;2023-04-30T08:39:57;6.35;;;2.00;;
23747;SDS011;12054;53.662;10.126;2023-04-30T08:42:24;5.00;;;2.40;;
23747;SDS011;12054;53.662;10.126;2023-04-30T08:44:53;7.13;;;2.35;;
23747;SDS011;12054;53.662;10.126;2023-04-30T08:47:18;6.32;;;2.50;;
23747;SDS011;12054;53.662;10.126;2023-04-30T08:49:46;5.97;;;2.28;;
23747;SDS011;12054;53.662;10.126;2023-04-30T08:52:13;3.00;;;2.10;;
23747;SDS011;12054;53.662;10.126;2023-04-30T08:54:38;6.53;;;2.10;;
23747;SDS011;12054;53.662;10.126;2023-04-30T08:57:04;5.13;;;2.10;;
23747;SDS011;12054;53.662;10.126;2023-04-30T08:59:30;4.85;;;1.92;;
23747;SDS011;12054;53.662;10.126;2023-04-30T09:01:55;4.60;;;2.28;;
23747;SDS011;12054;53.662;10.126;2023-04-30T09:04:21;5.57;;;2.30;;
23747;SDS011;12054;53.662;10.126;2023-04-30T09:06:46;5.65;;;2.33;;
23747;SDS011;12054;53.662;10.126;2023-04-30T09:09:13;3.20;;;2.15;;
23747;SDS011;12054;53.662;10.126;2023-04-30T09:11:39;10.20;;;2.53;;
23747;SDS011;12054;53.662;10.126;2023-04-30T09:14:06;5.55;;;1.90;;
23747;SDS011;12054;53.662;10.126;2023-04-30T09:16:46;6.80;;;2.60;;
23747;SDS011;12054;53.662;10.126;2023-04-30T09:22:18;5.40;;;2.10;;
23747;SDS011;12054;53.662;10.126;2023-04-30T09:24:47;4.75;;;1.90;;
23747;SDS011;12054;53.662;10.126;2023-04-30T09:27:15;7.07;;;2.25;;
23747;SDS011;12054;53.662;10.126;2023-04-30T09:29:44;6.88;;;2.70;;
23747;SDS011;12054;53.662;10.126;2023-04-30T09:32:11;5.25;;;2.80;;
23747;SDS011;12054;53.662;10.126;2023-04-30T09:34:38;4.53;;;2.22;;
23747;SDS011;12054;53.662;10.126;2023-04-30T09:37:04;7.70;;;1.92;;
23747;SDS011;12054;53.662;10.126;2023-04-30T09:39:30;5.93;;;2.40;;
23747;SDS011;12054;53.662;10.126;2023-04-30T09:42:08;5.43;;;2.20;;
23747;SDS011;12054;53.662;10.126;2023-04-30T09:44:36;5.75;;;2.25;;
23747;SDS011;12054;53.662;10.126;2023-04-30T09:47:02;5.68;;;2.05;;
23747;SDS011;12054;53.662;10.126;2023-04-30T09:49:28;4.88;;;2.72;;
23747;SDS011;12054;53.662;10.126;2023-04-30T09:51:55;2.97;;;2.00;;
23747;SDS011;12054;53.662;10.126;2023-04-30T09:54:25;4.90;;;2.10;;
23747;SDS011;12054;53.662;10.126;2023-04-30T09:56:54;5.90;;;2.28;;
23747;SDS011;12054;53.662;10.126;2023-04-30T09:59:22;6.18;;;2.17;;
23747;SDS011;12054;53.662;10.126;2023-04-30T10:01:54;6.43;;;2.25;;
23747;SDS011;12054;53.662;10.126;2023-04-30T10:04:28;6.53;;;2.35;;
23747;SDS011;12054;53.662;10.126;2023-04-30T10:06:56;6.25;;;2.20;;
23747;SDS011;12054;53.662;10.126;2023-04-30T10:09:24;5.35;;;2.17;;
23747;SDS011;12054;53.662;10.126;2023-04-30T10:11:55;3.85;;;2.42;;
23747;SDS011;12054;53.662;10.126;2023-04-30T10:14:21;3.97;;;2.30;;
23747;SDS011;12054;53.662;10.126;2023-04-30T10:16:58;5.22;;;2.38;;
23747;SDS011;12054;53.662;10.126;2023-04-30T10:19:30;4.07;;;2.17;;
23747;SDS011;12054;53.662;10.126;2023-04-30T10:21:59;5.75;;;2.30;;
23747;SDS011;12054;53.662;10.126;2023-04-30T10:24:26;4.38;;;1.98;;
23747;SDS011;12054;53.662;10.126;2023-04-30T10:26:52;5.32;;;2.53;;
23747;SDS011;12054;53.662;10.126;2023-04-30T10:29:18;5.90;;;2.35;;
23747;SDS011;12054;53.662;10.126;2023-04-30T10:31:45;6.07;;;2.42;;
23747;SDS011;12054;53.662;10.126;2023-04-30T10:34:18;5.97;;;2.30;;
23747;SDS011;12054;53.662;10.126;2023-04-30T10:37:03;4.22;;;2.50;;
23747;SDS011;12054;53.662;10.126;2023-04-30T10:39:32;8.93;;;2.63;;
23747;SDS011;12054;53.662;10.126;2023-04-30T10:42:03;7.28;;;2.63;;
23747;SDS011;12054;53.662;10.126;2023-04-30T10:44:33;5.97;;;2.50;;
23747;SDS011;12054;53.662;10.126;2023-04-30T10:47:02;6.53;;;2.50;;
23747;SDS011;12054;53.662;10.126;2023-04-30T10:49:29;4.80;;;2.47;;
23747;SDS011;12054;53.662;10.126;2023-04-30T10:51:57;4.85;;;2.50;;
23747;SDS011;12054;53.662;10.126;2023-04-30T10:54:32;5.68;;;2.50;;
23747;SDS011;12054;53.662;10.126;2023-04-30T10:57:09;4.47;;;2.15;;
23747;SDS011;12054;53.662;10.126;2023-04-30T11:02:39;4.75;;;2.33;;
23747;SDS011;12054;53.662;10.126;2023-04-30T11:07:35;5.63;;;2.65;;
23747;SDS011;12054;53.662;10.126;2023-04-30T11:10:01;3.95;;;2.40;;
23747;SDS011;12054;53.662;10.126;2023-04-30T11:12:27;6.45;;;2.30;;
23747;SDS011;12054;53.662;10.126;2023-04-30T11:15:00;4.82;;;2.50;;
23747;SDS011;12054;53.662;10.126;2023-04-30T11:17:31;6.05;;;2.72;;
23747;SDS011;12054;53.662;10.126;2023-04-30T11:19:58;4.40;;;2.35;;
23747;SDS011;12054;53.662;10.126;2023-04-30T11:22:25;6.75;;;2.53;;
23747;SDS011;12054;53.662;10.126;2023-04-30T11:25:04;5.22;;;2.70;;
23747;SDS011;12054;53.662;10.126;2023-04-30T11:27:33;7.03;;;2.65;;
23747;SDS011;12054;53.662;10.126;2023-04-30T11:30:00;5.15;;;2.42;;
23747;SDS011;12054;53.662;10.126;2023-04-30T11:32:31;5.82;;;2.50;;
23747;SDS011;12054;53.662;10.126;2023-04-30T11:34:59;4.80;;;2.58;;
23747;SDS011;12054;53.662;10.126;2023-04-30T11:40:05;4.30;;;2.50;;
23747;SDS011;12054;53.662;10.126;2023-04-30T11:42:33;6.20;;;2.63;;
23747;SDS011;12054;53.662;10.126;2023-04-30T11:45:09;5.18;;;2.17;;
23747;SDS011;12054;53.662;10.126;2023-04-30T11:47:43;5.20;;;2.45;;
23747;SDS011;12054;53.662;10.126;2023-04-30T11:50:10;3.47;;;2.40;;
23747;SDS011;12054;53.662;10.126;2023-04-30T11:52:40;5.82;;;2.53;;
23747;SDS011;12054;53.662;10.126;2023-04-30T11:55:12;5.72;;;2.38;;
23747;SDS011;12054;53.662;10.126;2023-04-30T11:57:49;4.60;;;2.55;;
23747;SDS011;12054;53.662;10.126;2023-04-30T12:00:20;5.35;;;2.60;;
23747;SDS011;12054;53.662;10.126;2023-04-30T12:02:50;5.07;;;2.50;;
23747;SDS011;12054;53.662;10.126;2023-04-30T12:05:17;4.20;;;2.60;;
23747;SDS011;12054;53.662;10.126;2023-04-30T12:07:45;5.72;;;3.08;;
23747;SDS011;12054;53.662;10.126;2023-04-30T12:10:21;6.35;;;2.47;;
23747;SDS011;12054;53.662;10.126;2023-04-30T12:12:47;5.10;;;2.45;;
23747;SDS011;12054;53.662;10.126;2023-04-30T12:17:42;5.10;;;2.45;;
23747;SDS011;12054;53.662;10.126;2023-04-30T12:20:08;5.03;;;2.40;;
23747;SDS011;12054;53.662;10.126;2023-04-30T12:22:35;4.78;;;2.88;;
23747;SDS011;12054;53.662;10.126;2023-04-30T12:25:04;4.22;;;2.30;;
23747;SDS011;12054;53.662;10.126;2023-04-30T12:27:32;5.73;;;2.67;;
23747;SDS011;12054;53.662;10.126;2023-04-30T12:30:01;6.70;;;2.80;;
23747;SDS011;12054;53.662;10.126;2023-04-30T12:32:27;4.80;;;2.60;;
23747;SDS011;12054;53.662;10.126;2023-04-30T12:34:56;8.90;;;2.58;;
23747;SDS011;12054;53.662;10.126;2023-04-30T12:37:25;5.07;;;2.47;;
23747;SDS011;12054;53.662;10.126;2023-04-30T12:39:50;4.13;;;2.35;;
23747;SDS011;12054;53.662;10.126;2023-04-30T12:42:19;4.00;;;2.28;;
23747;SDS011;12054;53.662;10.126;2023-04-30T12:44:45;5.85;;;2.50;;
23747;SDS011;12054;53.662;10.126;2023-04-30T12:47:10;4.93;;;2.45;;
23747;SDS011;12054;53.662;10.126;2023-04-30T12:49:38;4.75;;;2.50;;
23747;SDS011;12054;53.662;10.126;2023-04-30T12:52:05;5.45;;;2.47;;
23747;SDS011;12054;53.662;10.126;2023-04-30T12:54:34;5.97;;;2.75;;
23747;SDS011;12054;53.662;10.126;2023-04-30T12:57:07;6.15;;;2.90;;
23747;SDS011;12054;53.662;10.126;2023-04-30T13:02:21;5.35;;;2.60;;
23747;SDS011;12054;53.662;10.126;2023-04-30T13:04:48;5.03;;;2.83;;
23747;SDS011;12054;53.662;10.126;2023-04-30T13:07:15;3.72;;;2.28;;
23747;SDS011;12054;53.662;10.126;2023-04-30T13:09:40;5.45;;;2.70;;
23747;SDS011;12054;53.662;10.126;2023-04-30T13:12:06;4.50;;;2.63;;
23747;SDS011;12054;53.662;10.126;2023-04-30T13:14:32;4.93;;;2.53;;
23747;SDS011;12054;53.662;10.126;2023-04-30T13:16:58;6.93;;;2.75;;
23747;SDS011;12054;53.662;10.126;2023-04-30T13:19:24;3.78;;;2.20;;
23747;SDS011;12054;53.662;10.126;2023-04-30T13:21:51;3.65;;;2.35;;
23747;SDS011;12054;53.662;10.126;2023-04-30T13:24:16;6.88;;;2.75;;
23747;SDS011;12054;53.662;10.126;2023-04-30T13:26:42;6.88;;;2.50;;
23747;SDS011;12054;53.662;10.126;2023-04-30T13:29:08;2.78;;;2.40;;
23747;SDS011;12054;53.662;10.126;2023-04-30T13:31:35;4.18;;;2.88;;
23747;SDS011;12054;53.662;10.126;2023-04-30T13:34:01;3.97;;;2.20;;
23747;SDS011;12054;53.662;10.126;2023-04-30T13:36:26;4.75;;;2.33;;
23747;SDS011;12054;53.662;10.126;2023-04-30T13:38:53;5.13;;;2.53;;
23747;SDS011;12054;53.662;10.126;2023-04-30T13:41:18;4.00;;;2.50;;
23747;SDS011;12054;53.662;10.126;2023-04-30T13:43:46;6.72;;;2.53;;
23747;SDS011;12054;53.662;10.126;2023-04-30T13:46:12;6.00;;;2.83;;
23747;SDS011;12054;53.662;10.126;2023-04-30T13:48:38;5.50;;;2.90;;
23747;SDS011;12054;53.662;10.126;2023-04-30T13:51:03;5.80;;;2.60;;
23747;SDS011;12054;53.662;10.126;2023-04-30T13:53:29;3.90;;;2.50;;
23747;SDS011;12054;53.662;10.126;2023-04-30T13:55:54;4.63;;;2.88;;
23747;SDS011;12054;53.662;10.126;2023-04-30T13:58:20;6.80;;;2.78;;
23747;SDS011;12054;53.662;10.126;2023-04-30T14:00:46;7.00;;;2.90;;
23747;SDS011;12054;53.662;10.126;2023-04-30T14:03:11;6.10;;;2.60;;
23747;SDS011;12054;53.662;10.126;2023-04-30T14:05:38;7.40;;;2.38;;
23747;SDS011;12054;53.662;10.126;2023-04-30T14:08:03;7.63;;;3.03;;
23747;SDS011;12054;53.662;10.126;2023-04-30T14:10:30;4.35;;;2.70;;
23747;SDS011;12054;53.662;10.126;2023-04-30T14:12:56;6.05;;;2.95;;
23747;SDS011;12054;53.662;10.126;2023-04-30T14:15:21;3.47;;;2.53;;
23747;SDS011;12054;53.662;10.126;2023-04-30T14:17:49;4.20;;;3.13;;
23747;SDS011;12054;53.662;10.126;2023-04-30T14:20:16;5.72;;;2.65;;
23747;SDS011;12054;53.662;10.126;2023-04-30T14:22:42;5.70;;;2.80;;
23747;SDS011;12054;53.662;10.126;2023-04-30T14:25:08;5.47;;;2.42;;
23747;SDS011;12054;53.662;10.126;2023-04-30T14:27:34;5.20;;;2.55;;
23747;SDS011;12054;53.662;10.126;2023-04-30T14:30:04;3.88;;;2.40;;
23747;SDS011;12054;53.662;10.126;2023-04-30T14:32:30;7.80;;;2.83;;
23747;SDS011;12054;53.662;10.126;2023-04-30T14:34:55;5.93;;;2.70;;
23747;SDS011;12054;53.662;10.126;2023-04-30T14:37:21;4.97;;;2.70;;
23747;SDS011;12054;53.662;10.126;2023-04-30T14:39:47;6.63;;;2.95;;
23747;SDS011;12054;53.662;10.126;2023-04-30T14:42:13;3.28;;;2.15;;
23747;SDS011;12054;53.662;10.126;2023-04-30T14:44:38;4.88;;;2.75;;
23747;SDS011;12054;53.662;10.126;2023-04-30T14:47:04;5.07;;;2.42;;
23747;SDS011;12054;53.662;10.126;2023-04-30T14:49:29;5.78;;;2.50;;
23747;SDS011;12054;53.662;10.126;2023-04-30T14:51:55;4.97;;;2.60;;
23747;SDS011;12054;53.662;10.126;2023-04-30T14:54:21;6.40;;;2.60;;
23747;SDS011;12054;53.662;10.126;2023-04-30T14:56:46;6.65;;;2.75;;
23747;SDS011;12054;53.662;10.126;2023-04-30T14:59:12;6.25;;;2.78;;
23747;SDS011;12054;53.662;10.126;2023-04-30T15:01:38;9.00;;;3.05;;